Time;durP1;ratioP1;P1;durP2;ratioP2;P2;SDS_P1;SDS_P2;PMS_P1;PMS_P2;Temp;Humidity;BMP_temperature;BMP_pressure;BME280_temperature;BME280_humidity;BME280_pressure;Samples;Min_cycle;Max_cycle;Signal;HPM_P1;HPM_P2
2023/10/20 00:00:06;;;;;;;0.80;0.80;;;;;;;8.06;100.00;99536.81;6203371;28;20233;-72
2023/10/20 00:03:27;;;;;;;1.37;1.27;;;;;;;8.04;100.00;99536.13;6205310;28;20233;-71
2023/10/20 00:06:48;;;;;;;1.23;1.23;;;;;;;8.08;100.00;99533.00;6216074;28;20237;-72
2023/10/20 00:10:11;;;;;;;1.10;1.00;;;;;;;8.11;100.00;99541.75;6196450;28;20249;-72
2023/10/20 00:13:33;;;;;;;0.80;0.80;;;;;;;8.07;100.00;99536.66;6205602;28;20461;-72
2023/10/20 00:16:54;;;;;;;1.10;1.10;;;;;;;8.08;100.00;99532.16;6202023;28;20229;-71
2023/10/20 00:20:15;;;;;;;1.43;0.83;;;;;;;8.07;100.00;99515.19;6203363;28;20237;-72
2023/10/20 00:23:36;;;;;;;0.60;0.60;;;;;;;8.03;100.00;99521.06;6205694;28;20323;-72
2023/10/20 00:26:58;;;;;;;0.93;0.93;;;;;;;8.06;100.00;99529.63;6208993;28;20230;-72
2023/10/20 00:30:19;;;;;;;0.93;0.93;;;;;;;8.06;100.00;99529.63;6203672;28;20506;-72
2023/10/20 00:33:40;;;;;;;1.00;1.00;;;;;;;7.97;100.00;99530.53;6201592;28;20225;-73
2023/10/20 00:37:01;;;;;;;1.00;1.00;;;;;;;8.05;100.00;99524.41;6210447;28;20241;-72
2023/10/20 00:40:22;;;;;;;1.20;1.10;;;;;;;7.97;100.00;99521.63;6202867;28;20228;-72
2023/10/20 00:43:44;;;;;;;1.70;1.27;;;;;;;7.98;100.00;99518.81;6209571;28;20323;-73
2023/10/20 00:47:05;;;;;;;1.37;1.27;;;;;;;7.97;100.00;99503.69;6186241;28;20614;-72
2023/10/20 00:50:26;;;;;;;1.27;1.17;;;;;;;7.94;100.00;99497.81;6201518;28;20245;-72
2023/10/20 00:53:48;;;;;;;1.20;1.10;;;;;;;7.96;100.00;99490.44;6210871;28;20229;-72
2023/10/20 00:57:09;;;;;;;1.20;1.10;;;;;;;7.99;100.00;99493.66;6211095;28;20238;-72
2023/10/20 01:00:31;;;;;;;1.00;1.00;;;;;;;7.95;100.00;99491.44;6209114;28;20881;-72
2023/10/20 01:03:52;;;;;;;1.00;1.00;;;;;;;7.91;100.00;99501.63;6207928;28;20221;-73
2023/10/20 01:07:14;;;;;;;2.33;1.53;;;;;;;7.96;100.00;99511.91;6202450;28;20237;-72
2023/10/20 01:10:35;;;;;;;1.10;1.10;;;;;;;7.88;100.00;99501.09;6207191;28;20252;-72
2023/10/20 01:13:57;;;;;;;1.40;1.30;;;;;;;7.83;100.00;99506.06;6204665;28;20253;-73
2023/10/20 01:17:19;;;;;;;1.30;1.20;;;;;;;7.82;100.00;99517.81;6205442;28;20343;-72
2023/10/20 01:20:40;;;;;;;2.53;1.53;;;;;;;7.77;100.00;99510.22;6212660;28;20225;-73
2023/10/20 01:24:04;;;;;;;1.70;1.60;;;;;;;7.69;100.00;99520.88;6203001;28;20614;-71
2023/10/20 01:27:25;;;;;;;1.40;1.30;;;;;;;7.76;100.00;99518.44;6199022;28;20699;-71
2023/10/20 01:30:47;;;;;;;1.83;1.70;;;;;;;7.85;100.00;99514.81;6206374;28;20241;-72
2023/10/20 01:34:09;;;;;;;1.70;1.03;;;;;;;7.84;100.00;99511.28;6199657;28;20986;-71
2023/10/20 01:37:30;;;;;;;1.50;1.40;;;;;;;7.87;100.00;99504.78;6193317;28;20339;-71
2023/10/20 01:40:52;;;;;;;1.67;1.33;;;;;;;7.89;100.00;99502.78;6207177;28;20256;-71
2023/10/20 01:44:13;;;;;;;1.33;1.27;;;;;;;7.90;100.00;99485.69;6204195;28;20237;-72
2023/10/20 01:47:35;;;;;;;1.27;1.27;;;;;;;7.89;100.00;99484.00;6204414;28;20253;-71
2023/10/20 01:50:56;;;;;;;1.17;1.17;;;;;;;7.90;100.00;99483.88;6216065;28;20229;-71
2023/10/20 01:54:17;;;;;;;1.60;1.50;;;;;;;7.85;100.00;99469.19;6210528;28;20237;-71
2023/10/20 01:57:40;;;;;;;1.60;1.50;;;;;;;7.82;100.00;99474.91;6202473;28;20266;-71
2023/10/20 02:01:01;;;;;;;1.50;1.40;;;;;;;7.74;100.00;99464.91;6202345;28;20233;-71
2023/10/20 02:04:22;;;;;;;1.70;1.60;;;;;;;7.69;100.00;99453.81;6204010;28;20314;-71
2023/10/20 02:07:43;;;;;;;2.20;2.10;;;;;;;7.54;100.00;99458.00;6202711;28;20646;-70
2023/10/20 02:11:04;;;;;;;1.57;1.43;;;;;;;7.67;100.00;99441.53;6204761;28;20229;-71
2023/10/20 02:14:26;;;;;;;1.50;1.40;;;;;;;7.67;100.00;99442.41;6205835;28;20244;-71
2023/10/20 02:17:49;;;;;;;2.43;2.27;;;;;;;7.65;100.00;99456.94;6202158;28;20336;-71
2023/10/20 02:21:13;;;;;;;1.93;1.73;;;;;;;7.58;100.00;99447.81;6199049;28;20245;-71
2023/10/20 02:24:34;;;;;;;1.40;1.30;;;;;;;7.59;100.00;99436.97;6201280;28;20237;-71
2023/10/20 02:27:54;;;;;;;2.03;1.87;;;;;;;7.58;100.00;99435.25;6202783;28;20253;-71
2023/10/20 02:31:18;;;;;;;1.70;1.60;;;;;;;7.59;100.00;99425.38;6200040;28;20328;-71
2023/10/20 02:34:39;;;;;;;1.60;1.50;;;;;;;7.56;100.00;99420.31;6200294;28;20241;-72
2023/10/20 02:38:00;;;;;;;2.53;2.33;;;;;;;7.49;100.00;99414.72;6198524;28;20540;-71
2023/10/20 02:41:21;;;;;;;2.07;1.90;;;;;;;7.50;100.00;99394.97;6201484;28;20659;-70
2023/10/20 02:44:42;;;;;;;2.47;2.27;;;;;;;7.51;100.00;99388.59;6206901;28;20681;-71
2023/10/20 02:48:05;;;;;;;2.37;2.17;;;;;;;7.53;100.00;99393.81;6203176;28;20241;-71
2023/10/20 02:51:26;;;;;;;1.80;1.70;;;;;;;7.56;100.00;99401.53;6190595;28;20237;-71
2023/10/20 02:54:47;;;;;;;1.90;1.80;;;;;;;7.60;100.00;99409.13;6203443;28;20316;-71
2023/10/20 02:58:10;;;;;;;1.67;1.57;;;;;;;7.64;100.00;99417.69;6201898;28;20627;-72
2023/10/20 03:01:31;;;;;;;2.37;2.17;;;;;;;7.65;100.00;99408.69;6211144;28;20233;-72
2023/10/20 03:04:54;;;;;;;2.40;2.13;;;;;;;7.64;100.00;99420.38;6207347;28;20737;-72
2023/10/20 03:08:15;;;;;;;1.97;1.87;;;;;;;7.54;100.00;99414.25;6199812;28;20233;-71
2023/10/20 03:11:36;;;;;;;1.90;1.80;;;;;;;7.53;100.00;99404.53;6205145;28;20842;-71
2023/10/20 03:14:57;;;;;;;1.40;1.30;;;;;;;7.51;100.00;99393.13;6204356;28;20267;-72
2023/10/20 03:18:17;;;;;;;1.43;1.33;;;;;;;7.41;100.00;99381.63;6199911;28;20246;-72
2023/10/20 03:21:40;;;;;;;1.50;1.40;;;;;;;7.41;100.00;99390.50;6197320;28;20268;-71
2023/10/20 03:25:02;;;;;;;1.20;1.20;;;;;;;7.46;100.00;99388.22;6201715;28;20346;-71
2023/10/20 03:28:23;;;;;;;2.07;1.97;;;;;;;7.52;100.00;99392.97;6202113;28;20229;-72
2023/10/20 03:31:44;;;;;;;2.03;1.93;;;;;;;7.51;100.00;99393.94;6202292;28;20828;-71
2023/10/20 03:35:07;;;;;;;1.20;1.10;;;;;;;7.46;100.00;99390.06;6207329;28;20607;-71
2023/10/20 03:38:29;;;;;;;2.47;1.67;;;;;;;7.40;100.00;99393.34;6199285;28;20233;-71
2023/10/20 03:41:50;;;;;;;1.90;1.80;;;;;;;7.48;100.00;99382.69;6205251;28;20233;-71
2023/10/20 03:45:14;;;;;;;1.97;1.77;;;;;;;7.48;100.00;99370.16;6199654;28;20229;-70
2023/10/20 03:48:37;;;;;;;2.03;1.93;;;;;;;7.45;100.00;99349.00;6207187;28;20238;-70
2023/10/20 03:51:58;;;;;;;1.43;1.33;;;;;;;7.47;100.00;99351.53;6198369;28;20602;-71
2023/10/20 03:55:21;;;;;;;1.13;1.03;;;;;;;7.47;100.00;99365.75;6205702;28;20233;-71
2023/10/20 03:58:46;;;;;;;1.10;1.00;;;;;;;7.41;100.00;99376.25;6207249;28;20954;-71
2023/10/20 04:02:07;;;;;;;1.80;1.70;;;;;;;7.45;100.00;99366.94;6205217;28;20249;-71
2023/10/20 04:05:28;;;;;;;1.77;1.67;;;;;;;7.43;100.00;99367.06;6199540;28;20225;-70
2023/10/20 04:08:49;;;;;;;1.07;1.07;;;;;;;7.37;100.00;99381.09;6200057;28;20237;-69
2023/10/20 04:12:11;;;;;;;1.33;1.33;;;;;;;7.38;100.00;99363.19;6201877;28;20229;-71
2023/10/20 04:15:36;;;;;;;1.30;1.20;;;;;;;7.41;100.00;99360.16;6201868;28;20225;-70
2023/10/20 04:18:58;;;;;;;1.37;1.27;;;;;;;7.41;100.00;99365.53;6195341;28;20229;-70
2023/10/20 04:22:19;;;;;;;1.50;1.37;;;;;;;7.30;100.00;99350.56;6200092;28;20240;-72
2023/10/20 04:25:49;;;;;;;2.43;1.67;;;;;;;7.26;100.00;99333.06;6205796;28;20632;-71
2023/10/20 04:29:33;;;;;;;1.10;1.00;;;;;;;7.31;100.00;99328.09;6204330;28;20232;-69
2023/10/20 04:44:57;;;;;;;1.60;1.50;;;;;;;7.24;100.00;99313.63;6199050;28;20233;-70
2023/10/20 04:48:13;;;;;;;2.47;2.27;;;;;;;7.24;100.00;99302.91;6202367;28;20304;-70
2023/10/20 04:52:01;;;;;;;1.87;1.77;;;;;;;7.12;100.00;99294.25;6208481;28;20600;-71
2023/10/20 04:59:22;;;;;;;2.70;2.27;;;;;;;7.15;100.00;99269.81;6201361;28;20233;-69
2023/10/20 05:02:56;;;;;;;2.30;2.10;;;;;;;7.21;100.00;99260.34;6195130;28;20217;-71
2023/10/20 05:06:22;;;;;;;2.37;2.17;;;;;;;7.17;100.00;99254.47;6199106;28;20224;-69
2023/10/20 05:09:44;;;;;;;2.77;2.57;;;;;;;7.12;100.00;99258.56;6196312;28;20229;-70
2023/10/20 05:13:05;;;;;;;2.20;2.10;;;;;;;7.10;100.00;99252.53;6195442;28;20229;-70
2023/10/20 05:16:28;;;;;;;2.53;2.37;;;;;;;7.11;100.00;99257.72;6205552;28;20324;-70
2023/10/20 05:19:53;;;;;;;2.33;2.13;;;;;;;7.05;100.00;99253.00;6192397;28;20237;-70
2023/10/20 05:23:15;;;;;;;2.10;1.90;;;;;;;7.15;100.00;99253.75;6201338;28;20616;-71
2023/10/20 05:26:36;;;;;;;2.33;2.13;;;;;;;7.14;100.00;99257.44;6202498;28;20253;-70
2023/10/20 05:29:57;;;;;;;4.17;2.27;;;;;;;7.00;100.00;99263.34;6199679;28;20236;-72
2023/10/20 05:33:18;;;;;;;2.87;2.67;;;;;;;7.07;100.00;99260.91;6203895;28;20241;-71
2023/10/20 05:36:42;;;;;;;2.57;2.37;;;;;;;7.02;100.00;99271.22;6206145;28;20237;-70
2023/10/20 05:40:03;;;;;;;2.83;2.63;;;;;;;7.03;100.00;99268.38;6205457;28;20492;-70
2023/10/20 05:43:25;;;;;;;2.60;2.40;;;;;;;7.01;100.00;99269.50;6202239;28;20241;-68
2023/10/20 05:46:46;;;;;;;2.03;1.73;;;;;;;7.06;100.00;99280.63;6199672;28;20236;-70
2023/10/20 05:50:08;;;;;;;1.70;1.60;;;;;;;7.11;100.00;99265.75;6212476;28;20233;-68
2023/10/20 05:53:30;;;;;;;2.03;1.83;;;;;;;7.13;100.00;99266.44;6209031;28;20237;-68
2023/10/20 05:56:51;;;;;;;2.83;2.63;;;;;;;7.00;100.00;99270.53;6203333;28;20530;-69
2023/10/20 06:00:15;;;;;;;2.47;2.27;;;;;;;7.01;100.00;99272.19;6209105;28;20265;-68
2023/10/20 06:03:37;;;;;;;2.27;2.00;;;;;;;7.08;100.00;99286.69;6209887;28;20229;-67
2023/10/20 06:06:58;;;;;;;1.30;1.20;;;;;;;7.01;100.00;99256.97;6203581;28;20257;-69
2023/10/20 06:10:23;;;;;;;2.17;2.00;;;;;;;7.06;100.00;99264.56;6200694;28;20237;-68
2023/10/20 06:13:44;;;;;;;1.67;1.57;;;;;;;6.99;100.00;99250.94;6207862;28;20539;-68
2023/10/20 06:17:05;;;;;;;1.60;1.50;;;;;;;6.99;100.00;99256.28;6204204;28;20601;-68
2023/10/20 06:20:26;;;;;;;1.73;1.63;;;;;;;6.97;100.00;99249.38;6201339;28;20225;-69
2023/10/20 06:23:47;;;;;;;2.00;1.90;;;;;;;6.90;100.00;99253.69;6208677;28;22404;-69
2023/10/20 06:27:11;;;;;;;2.30;2.20;;;;;;;6.92;100.00;99273.13;6199084;28;20229;-68
2023/10/20 06:30:33;;;;;;;1.50;1.43;;;;;;;6.94;100.00;99273.81;6206044;28;21303;-69
2023/10/20 06:33:59;;;;;;;2.10;1.90;;;;;;;7.01;100.00;99262.31;6206042;28;20229;-70
2023/10/20 06:37:28;;;;;;;2.70;2.43;;;;;;;6.95;100.00;99249.56;6204426;28;20229;-69
2023/10/20 06:40:49;;;;;;;2.77;2.47;;;;;;;6.95;100.00;99243.34;6205330;28;20257;-67
2023/10/20 06:44:13;;;;;;;2.03;1.83;;;;;;;7.05;100.00;99241.47;6200254;28;20389;-69
2023/10/20 06:47:35;;;;;;;1.57;1.43;;;;;;;6.92;100.00;99244.53;6203542;28;20233;-68
2023/10/20 06:50:56;;;;;;;1.73;1.63;;;;;;;6.89;100.00;99234.09;6207590;28;20622;-69
2023/10/20 06:54:17;;;;;;;2.13;1.93;;;;;;;6.91;100.00;99210.69;6208000;28;20249;-69
2023/10/20 06:57:38;;;;;;;2.03;1.70;;;;;;;6.92;100.00;99198.13;6210249;28;20233;-70
2023/10/20 07:01:05;;;;;;;2.43;1.87;;;;;;;6.94;100.00;99210.38;6205096;28;20229;-69
2023/10/20 07:04:26;;;;;;;2.23;2.07;;;;;;;6.93;100.00;99202.47;6207938;28;20610;-68
2023/10/20 07:07:47;;;;;;;1.93;1.83;;;;;;;6.98;100.00;99198.38;6203504;28;20642;-69
2023/10/20 07:11:07;;;;;;;2.60;2.40;;;;;;;6.96;100.00;99204.88;6203303;28;20237;-67
2023/10/20 07:14:28;;;;;;;2.50;2.20;;;;;;;6.81;100.00;99184.97;6198821;28;20690;-68
2023/10/20 07:17:51;;;;;;;4.43;4.03;;;;;;;6.81;100.00;99172.44;6206443;28;20278;-68
2023/10/20 07:21:12;;;;;;;2.57;2.37;;;;;;;6.76;100.00;99173.91;6210434;28;20240;-67
2023/10/20 07:24:33;;;;;;;3.47;3.00;;;;;;;6.82;100.00;99170.59;6206324;28;20238;-68
2023/10/20 07:27:54;;;;;;;2.73;2.30;;;;;;;6.93;100.00;99183.72;6206697;28;21305;-69
2023/10/20 07:31:17;;;;;;;3.30;3.00;;;;;;;6.90;100.00;99178.69;6208351;28;20237;-70
2023/10/20 07:34:39;;;;;;;4.07;3.27;;;;;;;6.75;100.00;99177.56;6200871;28;20302;-69
2023/10/20 07:38:00;;;;;;;3.80;3.40;;;;;;;6.91;100.00;99191.09;6198319;28;20233;-68
2023/10/20 07:41:21;;;;;;;3.53;3.27;;;;;;;6.91;100.00;99191.09;6205293;28;20233;-67
2023/10/20 07:44:42;;;;;;;3.33;3.07;;;;;;;6.82;100.00;99174.09;6197287;28;20635;-71
2023/10/20 07:48:05;;;;;;;4.00;3.37;;;;;;;6.76;100.00;99169.34;6198713;28;20226;-69
2023/10/20 07:51:28;;;;;;;2.30;2.20;;;;;;;6.81;100.00;99159.03;6198925;28;20233;-70
2023/10/20 07:54:49;;;;;;;3.63;3.33;;;;;;;6.85;100.00;99162.25;6201279;28;20225;-69
2023/10/20 07:58:10;;;;;;;3.47;2.93;;;;;;;6.76;100.00;99176.56;6206763;28;20225;-69
2023/10/20 08:01:31;;;;;;;3.70;3.40;;;;;;;6.82;100.00;99171.41;6203236;28;20237;-71
2023/10/20 08:04:53;;;;;;;3.67;3.17;;;;;;;6.86;100.00;99177.34;6199976;28;20324;-70
2023/10/20 08:08:15;;;;;;;3.50;3.20;;;;;;;6.78;100.00;99172.72;6205888;28;20248;-69
2023/10/20 08:11:36;;;;;;;3.67;3.37;;;;;;;6.83;100.00;99161.56;6196496;28;20225;-70
2023/10/20 08:14:58;;;;;;;5.13;4.73;;;;;;;6.81;100.00;99159.03;6205028;28;20229;-70
2023/10/20 08:18:19;;;;;;;3.70;3.13;;;;;;;6.85;100.00;99154.22;6209018;28;20747;-69
2023/10/20 08:21:42;;;;;;;4.73;4.20;;;;;;;6.90;100.00;99163.47;6201408;28;20240;-69
2023/10/20 08:25:04;;;;;;;4.13;2.70;;;;;;;6.80;100.00;99160.03;6206855;28;20229;-70
2023/10/20 08:28:26;;;;;;;4.87;4.50;;;;;;;6.81;100.00;99159.03;6213635;28;20237;-70
2023/10/20 08:31:47;;;;;;;5.10;3.73;;;;;;;6.77;100.00;99155.00;6204365;28;20237;-69
2023/10/20 08:35:08;;;;;;;5.53;4.40;;;;;;;6.85;100.00;99160.41;6209065;28;20233;-70
2023/10/20 08:38:29;;;;;;;3.73;3.43;;;;;;;6.87;100.00;99158.41;6205180;28;20233;-70
2023/10/20 08:41:53;;;;;;;3.77;3.27;;;;;;;6.79;100.00;99157.50;6208391;28;20237;-70
2023/10/20 08:45:14;;;;;;;3.50;3.20;;;;;;;6.76;100.00;99147.13;6213268;28;20249;-69
2023/10/20 08:48:39;;;;;;;3.97;3.60;;;;;;;6.85;100.00;99130.09;6206572;28;20226;-69
2023/10/20 08:52:04;;;;;;;4.03;3.73;;;;;;;6.88;100.00;99129.81;6205142;28;20229;-69
2023/10/20 08:55:27;;;;;;;3.90;3.03;;;;;;;6.78;100.00;99140.59;6205491;28;20328;-70
2023/10/20 08:58:49;;;;;;;4.10;2.80;;;;;;;6.75;100.00;99146.28;6213739;28;20579;-70
2023/10/20 09:02:11;;;;;;;4.20;3.80;;;;;;;6.82;100.00;99138.47;6206814;28;20237;-70
2023/10/20 09:05:31;;;;;;;3.63;3.33;;;;;;;6.87;100.00;99120.06;6212993;28;20252;-70
2023/10/20 09:08:53;;;;;;;3.50;3.17;;;;;;;6.76;100.00;99110.44;6208303;28;20316;-70
2023/10/20 09:12:14;;;;;;;3.23;3.03;;;;;;;6.81;100.00;99093.91;6213221;28;20225;-69
2023/10/20 09:15:37;;;;;;;4.67;3.70;;;;;;;6.85;100.00;99089.94;6206992;28;20225;-69
2023/10/20 09:18:58;;;;;;;4.20;3.90;;;;;;;6.86;100.00;99087.09;6210562;28;20222;-69
2023/10/20 09:22:27;;;;;;;8.87;4.80;;;;;;;6.77;100.00;99074.66;6218098;28;20237;-70
2023/10/20 09:25:48;;;;;;;4.43;4.00;;;;;;;6.75;100.00;99081.16;6213547;28;20590;-69
2023/10/20 09:29:09;;;;;;;4.47;4.07;;;;;;;6.89;100.00;99086.78;6210125;28;20281;-70
2023/10/20 09:32:32;;;;;;;5.50;3.23;;;;;;;6.80;100.00;99068.97;6217502;28;20237;-70
2023/10/20 09:35:53;;;;;;;3.57;3.27;;;;;;;6.83;100.00;99074.03;6203076;28;20233;-69
2023/10/20 09:39:24;;;;;;;3.60;3.30;;;;;;;6.87;100.00;99071.88;6211814;28;20333;-70
2023/10/20 09:42:58;;;;;;;3.03;2.83;;;;;;;6.94;100.00;99081.81;6214226;28;20233;-69
2023/10/20 09:46:38;;;;;;;3.77;3.47;;;;;;;6.87;100.00;99090.63;6216487;28;20302;-70
2023/10/20 09:50:00;;;;;;;2.93;2.73;;;;;;;6.79;100.00;99078.03;6204135;28;20229;-69
2023/10/20 09:53:22;;;;;;;3.97;3.60;;;;;;;6.89;100.00;99075.22;6205982;28;20340;-70
2023/10/20 09:56:44;;;;;;;3.33;3.03;;;;;;;6.72;100.00;99079.63;6204868;28;20229;-71
2023/10/20 10:00:07;;;;;;;3.57;3.30;;;;;;;6.83;100.00;99091.94;6200446;28;20876;-68
2023/10/20 10:03:28;;;;;;;2.70;2.50;;;;;;;6.87;100.00;99095.97;6201628;28;20229;-69
2023/10/20 10:06:50;;;;;;;4.03;3.73;;;;;;;6.87;100.00;99099.50;6206046;28;20245;-69
2023/10/20 10:10:20;;;;;;;3.37;3.07;;;;;;;6.90;100.00;99082.28;6208851;28;20229;-69
2023/10/20 10:13:40;;;;;;;3.30;3.00;;;;;;;6.92;100.00;99099.03;6210865;28;20241;-68
2023/10/20 10:17:02;;;;;;;2.77;2.57;;;;;;;6.92;100.00;99086.50;6206945;28;20309;-68
2023/10/20 10:20:25;;;;;;;2.77;2.57;;;;;;;6.94;100.00;99095.22;6207435;28;20244;-70
2023/10/20 10:24:12;;;;;;;3.13;2.83;;;;;;;6.94;100.00;99079.13;6205725;28;20262;-69
2023/10/20 10:27:33;;;;;;;2.97;2.77;;;;;;;6.86;100.00;99086.28;6211644;28;20248;-69
2023/10/20 10:30:54;;;;;;;2.50;2.30;;;;;;;6.89;100.00;99068.03;6208649;28;20224;-73
2023/10/20 10:34:15;;;;;;;2.40;2.20;;;;;;;6.89;100.00;99084.13;6209103;28;20233;-69
2023/10/20 10:37:37;;;;;;;2.33;1.80;;;;;;;6.95;100.00;99072.75;6202925;28;20304;-70
2023/10/20 10:41:00;;;;;;;2.70;2.47;;;;;;;6.88;100.00;99087.81;6211931;28;20253;-68
2023/10/20 10:44:22;;;;;;;2.03;1.83;;;;;;;6.89;100.00;99091.28;6204817;28;20229;-72
2023/10/20 10:47:43;;;;;;;1.63;1.53;;;;;;;6.91;100.00;99097.34;6201704;28;20315;-71
2023/10/20 10:51:05;;;;;;;2.60;1.97;;;;;;;6.75;100.00;99098.06;6212587;28;20237;-70
2023/10/20 10:54:26;;;;;;;2.97;2.53;;;;;;;6.82;100.00;99087.59;6205963;28;20666;-69
2023/10/20 10:57:48;;;;;;;2.03;1.83;;;;;;;6.86;100.00;99084.41;6207697;28;20681;-71
2023/10/20 11:01:09;;;;;;;3.67;2.90;;;;;;;6.89;100.00;99075.22;6204058;28;20237;-70
2023/10/20 11:04:30;;;;;;;3.33;3.13;;;;;;;6.87;100.00;99079.91;6213137;28;20229;-70
2023/10/20 11:08:01;;;;;;;2.77;2.33;;;;;;;6.92;100.00;99073.09;6211018;28;20230;-71
2023/10/20 11:11:25;;;;;;;2.47;2.27;;;;;;;6.79;100.00;99077.16;6207452;28;20232;-70
2023/10/20 11:14:47;;;;;;;2.10;1.90;;;;;;;6.88;100.00;99074.41;6191203;28;20221;-69
2023/10/20 11:18:10;;;;;;;1.83;1.47;;;;;;;6.91;100.00;99070.56;6208175;28;20237;-68
2023/10/20 11:21:47;;;;;;;3.07;2.03;;;;;;;6.98;100.00;99071.63;6202792;28;20257;-69
2023/10/20 11:25:10;;;;;;;2.13;2.03;;;;;;;7.01;100.00;99073.97;6207367;28;20598;-70
2023/10/20 11:28:30;;;;;;;2.30;2.13;;;;;;;7.04;100.00;99076.34;6208473;28;20233;-69
2023/10/20 11:31:53;;;;;;;2.57;2.37;;;;;;;7.01;100.00;99063.25;6202936;28;20237;-71
2023/10/20 11:35:13;;;;;;;1.77;1.67;;;;;;;7.03;100.00;99063.97;6205536;28;20336;-69
2023/10/20 11:38:35;;;;;;;1.87;1.77;;;;;;;6.96;100.00;99055.72;6208376;28;20229;-69
2023/10/20 11:41:56;;;;;;;1.60;1.50;;;;;;;7.05;100.00;99061.97;6206416;28;20245;-69
2023/10/20 11:45:18;;;;;;;5.13;2.17;;;;;;;7.04;100.00;99050.41;6209149;28;20779;-71
2023/10/20 11:48:41;;;;;;;1.50;1.40;;;;;;;6.94;100.00;99038.97;6204666;28;20237;-70
2023/10/20 11:52:05;;;;;;;2.33;2.13;;;;;;;7.02;100.00;99051.56;6206432;28;20241;-68
2023/10/20 11:55:26;;;;;;;1.13;1.13;;;;;;;6.91;100.00;99046.44;6207787;28;20238;-70
2023/10/20 11:58:47;;;;;;;2.00;1.63;;;;;;;6.99;100.00;99047.34;6206611;28;20503;-71
2023/10/20 12:02:08;;;;;;;2.23;2.00;;;;;;;6.97;100.00;99032.41;6202548;28;20354;-69
2023/10/20 12:05:36;;;;;;;1.63;1.53;;;;;;;6.98;100.00;99032.28;6206769;28;20229;-68
2023/10/20 12:08:57;;;;;;;1.37;1.27;;;;;;;7.01;100.00;99007.00;6196528;28;20252;-73
2023/10/20 12:12:19;;;;;;;1.80;1.60;;;;;;;7.03;100.00;99019.22;6198119;28;23216;-69
2023/10/20 12:15:40;;;;;;;2.43;1.20;;;;;;;7.14;100.00;99002.88;6201963;28;20681;-69
2023/10/20 12:19:03;;;;;;;1.53;1.43;;;;;;;7.05;100.00;99011.88;6202203;28;20631;-70
2023/10/20 12:22:26;;;;;;;1.17;1.07;;;;;;;7.05;100.00;98992.31;6206594;28;20308;-70
2023/10/20 12:25:47;;;;;;;1.63;1.53;;;;;;;7.07;100.00;98984.94;6202021;28;20225;-70
2023/10/20 12:29:08;;;;;;;1.00;1.00;;;;;;;6.95;100.00;98976.34;6208859;28;20229;-70
2023/10/20 12:32:29;;;;;;;1.37;1.27;;;;;;;6.98;100.00;98962.63;6204926;28;20229;-70
2023/10/20 12:35:49;;;;;;;1.07;1.07;;;;;;;7.07;100.00;98956.28;6214180;28;20248;-68
2023/10/20 12:39:17;;;;;;;1.40;1.30;;;;;;;7.10;100.00;98949.78;6213320;28;20323;-71
2023/10/20 12:42:38;;;;;;;1.00;1.00;;;;;;;7.09;100.00;98950.81;6211598;28;20347;-71
2023/10/20 12:46:01;;;;;;;2.43;1.00;;;;;;;7.16;100.00;98941.09;6218029;28;20228;-70
2023/10/20 12:49:22;;;;;;;1.00;1.00;;;;;;;7.15;100.00;98928.72;6208609;28;20236;-70
2023/10/20 12:52:43;;;;;;;1.70;1.43;;;;;;;7.10;100.00;98907.75;6212796;28;20229;-71
2023/10/20 12:56:06;;;;;;;2.23;2.03;;;;;;;7.09;100.00;98894.53;6203183;28;20241;-70
2023/10/20 12:59:27;;;;;;;2.10;1.97;;;;;;;7.15;100.00;98889.34;6214565;28;20615;-70
2023/10/20 13:02:49;;;;;;;1.83;1.73;;;;;;;7.10;100.00;98866.72;6209433;28;20241;-69
2023/10/20 13:06:10;;;;;;;0.90;0.90;;;;;;;7.17;100.00;98852.53;6206683;28;20225;-68
2023/10/20 13:09:31;;;;;;;0.80;0.80;;;;;;;7.20;100.00;98828.06;6203196;28;20267;-70
2023/10/20 13:12:54;;;;;;;0.90;0.90;;;;;;;7.21;100.00;98829.75;6210658;28;20579;-76
2023/10/20 13:16:15;;;;;;;1.47;1.40;;;;;;;7.41;100.00;98811.50;6207766;28;20568;-68
2023/10/20 13:19:37;;;;;;;1.20;1.00;;;;;;;7.31;100.00;98821.56;6203718;28;20234;-70
2023/10/20 13:22:58;;;;;;;1.10;0.77;;;;;;;7.23;100.00;98814.38;6209735;28;20248;-71
2023/10/20 13:26:19;;;;;;;1.00;1.00;;;;;;;7.12;100.00;98809.31;6214584;28;20240;-70
2023/10/20 13:29:42;;;;;;;1.23;1.23;;;;;;;7.07;100.00;98792.88;6215047;28;20631;-70
2023/10/20 13:33:04;;;;;;;1.10;1.00;;;;;;;7.04;100.00;98805.78;6209340;28;20225;-70
2023/10/20 13:36:25;;;;;;;0.90;0.90;;;;;;;7.11;100.00;98778.16;6216882;28;20232;-70
2023/10/20 13:39:46;;;;;;;0.93;0.87;;;;;;;7.05;100.00;98783.38;6212168;28;20229;-71
2023/10/20 13:43:07;;;;;;;1.77;1.53;;;;;;;7.09;100.00;98784.72;6210480;28;20233;-71
2023/10/20 13:46:30;;;;;;;0.87;0.87;;;;;;;7.08;100.00;98772.28;6214037;28;20236;-71
2023/10/20 13:49:50;;;;;;;1.70;1.60;;;;;;;7.07;100.00;98765.28;6207133;28;20237;-70
2023/10/20 13:53:14;;;;;;;1.00;1.00;;;;;;;7.11;100.00;98766.63;6212227;28;20229;-70
2023/10/20 13:56:35;;;;;;;1.00;1.00;;;;;;;7.10;100.00;98751.53;6208959;28;20229;-70
2023/10/20 13:59:56;;;;;;;0.70;0.70;;;;;;;7.06;100.00;98748.38;6197979;28;20401;-70
2023/10/20 14:03:18;;;;;;;1.47;1.40;;;;;;;7.07;100.00;98735.81;6210392;28;20237;-71
2023/10/20 14:06:39;;;;;;;0.73;0.73;;;;;;;7.07;100.00;98730.47;6208024;28;20222;-71
2023/10/20 14:10:01;;;;;;;1.87;1.77;;;;;;;7.07;100.00;98736.63;6203595;28;20324;-69
2023/10/20 14:13:22;;;;;;;1.00;1.00;;;;;;;7.10;100.00;98732.78;6208231;28;20480;-69
2023/10/20 14:16:43;;;;;;;1.70;1.60;;;;;;;7.11;100.00;98737.16;6203299;28;20257;-71
2023/10/20 14:20:06;;;;;;;2.20;1.57;;;;;;;7.11;100.00;98734.47;6207343;28;20245;-71
2023/10/20 14:23:28;;;;;;;2.70;2.00;;;;;;;7.13;100.00;98725.25;6199876;28;20230;-72
2023/10/20 14:26:49;;;;;;;3.60;1.07;;;;;;;7.14;100.00;98740.31;6200269;28;20226;-72
2023/10/20 14:30:11;;;;;;;1.13;0.90;;;;;;;7.17;100.00;98721.25;6201104;28;20298;-71
2023/10/20 14:33:33;;;;;;;1.00;1.00;;;;;;;7.12;100.00;98726.25;6200277;28;20241;-71
2023/10/20 14:36:56;;;;;;;1.27;1.17;;;;;;;7.13;100.00;98711.84;6202532;28;20233;-72
2023/10/20 14:40:17;;;;;;;1.13;1.10;;;;;;;7.12;100.00;98722.75;6200589;28;20339;-72
2023/10/20 14:43:39;;;;;;;1.00;0.90;;;;;;;7.02;100.00;98730.94;6199957;28;20261;-72
2023/10/20 14:47:00;;;;;;;0.90;0.90;;;;;;;7.06;100.00;98737.66;6221408;28;20273;-72
2023/10/20 14:50:22;;;;;;;1.10;1.00;;;;;;;7.02;100.00;98736.31;6210449;28;20260;-72
2023/10/20 14:53:44;;;;;;;0.80;0.80;;;;;;;7.13;100.00;98740.50;6210253;28;20220;-72
2023/10/20 14:57:06;;;;;;;1.00;1.00;;;;;;;7.10;100.00;98744.34;6205781;28;20237;-70
2023/10/20 15:00:28;;;;;;;1.70;1.60;;;;;;;7.11;100.00;98723.75;6203030;28;20225;-72
2023/10/20 15:03:49;;;;;;;0.90;0.90;;;;;;;7.12;100.00;98722.75;6198710;28;20230;-73
2023/10/20 15:07:10;;;;;;;1.93;1.83;;;;;;;7.14;100.00;98721.56;6204650;28;20674;-72
2023/10/20 15:10:32;;;;;;;2.13;1.97;;;;;;;7.13;100.00;98719.06;6201502;28;20230;-73
2023/10/20 15:13:53;;;;;;;1.87;1.40;;;;;;;7.10;100.00;98720.25;6203522;28;20236;-73
2023/10/20 15:17:14;;;;;;;2.50;2.30;;;;;;;7.08;100.00;98726.75;6202335;28;20225;-72
2023/10/20 15:20:35;;;;;;;2.67;2.47;;;;;;;7.06;100.00;98726.94;6200751;28;20221;-72
2023/10/20 15:23:56;;;;;;;1.37;1.27;;;;;;;7.12;100.00;98693.28;6192167;28;20233;-72
2023/10/20 15:27:18;;;;;;;3.60;3.10;;;;;;;7.10;100.00;98695.28;6201273;28;20340;-72
2023/10/20 15:30:39;;;;;;;1.33;1.23;;;;;;;7.04;100.00;98695.94;6204527;28;20229;-72
2023/10/20 15:34:00;;;;;;;1.87;1.70;;;;;;;7.06;100.00;98692.09;6198264;28;20459;-72
2023/10/20 15:37:21;;;;;;;1.67;1.33;;;;;;;7.03;100.00;98681.72;6207512;28;20250;-72
2023/10/20 15:40:42;;;;;;;1.87;1.57;;;;;;;7.03;100.00;98672.88;6193930;28;20798;-72
2023/10/20 15:44:05;;;;;;;1.93;1.83;;;;;;;7.03;100.00;98667.50;6204402;28;20626;-72
2023/10/20 15:47:26;;;;;;;1.83;1.73;;;;;;;7.08;100.00;98686.56;6203119;28;20237;-74
2023/10/20 15:50:48;;;;;;;2.40;1.83;;;;;;;6.99;100.00;98696.44;6201500;28;20245;-72
2023/10/20 15:54:09;;;;;;;2.23;2.03;;;;;;;7.05;100.00;98703.00;6204907;28;20240;-72
2023/10/20 15:57:29;;;;;;;1.90;1.80;;;;;;;7.07;100.00;98699.13;6207425;28;20229;-73
2023/10/20 16:00:57;;;;;;;1.67;1.57;;;;;;;7.02;100.00;98689.94;6197940;28;20236;-73
2023/10/20 16:04:19;;;;;;;1.33;1.17;;;;;;;6.99;100.00;98684.88;6201422;28;20224;-72
2023/10/20 16:07:40;;;;;;;0.80;0.80;;;;;;;7.06;100.00;98704.66;6202238;28;20240;-72